Terminal Aerodrome Forecast
Issued by NWS Shreveport, LA

Home | Current Version | Previous Version | Text Only | Print | Product List | Glossary On
Versions: 1 2 3 4 5 6 7 8 9 10 11 12 13 14 15
676
FTUS44 KSHV 290530
TAFLFK
TAF
KLFK 290530Z 2906/3006 15010KT P6SM -RA VCTS BKN007 BKN015CB OVC100
      TEMPO 2906/2910 -TSRA BKN007CB
     FM291000 09003KT 4SM BR OVC007
     FM291600 12006KT P6SM VCTS BKN015 BKN040CB BKN250
     FM291900 18007KT P6SM -TSRA OVC015CB
     FM300100 VRB03KT P6SM -RA BKN010
     FM300400 VRB03KT P6SM OVC050=

USA.gov is the U.S. government's official web portal to all federal, state and local government web resources and services.